YBBN/BNE METAR and TAF weather

Enter ICAO airport designator
Station Type Date Time Source
YBBN METAR 2020/09/18 22:30 UTC NOAA

YBBN 182230Z 11007KT 9999 FEW039 22/14 Q1026 FM0000 07010KT 9999 SCT040


Station Type Date Time Source
YBBN Decoded METAR 2020/09/18 22:30 UTC NOAA

Brisbane Airport M. O, Australia (YBBN) 27-23S 153-06E 5M
Sep 18, 2020 - 06:30 PM EDT / 2020.09.18 2230 UTC
Wind: from the ESE (110 degrees) at 8 MPH (7 KT):0
Visibility: greater than 7 mile(s):0
Sky conditions: partly cloudy
Temperature: 71 F (22 C)
Dew Point: 57 F (14 C)
Relative Humidity: 60%
Pressure (altimeter): 30.30 in. Hg (1026 hPa)
ob: YBBN 182230Z 11007KT 9999 FEW039 22/14 Q1026 FM0000 07010KT 9999 SCT040
cycle: 22

Station Type Date Time Source
YBBN TAF 2020/09/18 18:31 UTC NOAA

TAF YBBN 181701Z 1818/2000 18007KT 9999 SCT030
FM190000 07013KT 9999 SCT040
FM191200 21006KT 9999 -SHRA SCT030 INTER 1918/2000 3000 SHRA FEW010 BKN020

Example: see airport list